sensor_id;sensor_type;location;lat;lon;timestamp;P1;durP1;ratioP1;P2;durP2;ratioP2
29906;SDS011;16776;50.958;10.994;2023-03-11T00:00:07;1.38;;;1.27;;
29906;SDS011;16776;50.958;10.994;2023-03-11T00:02:41;1.58;;;1.20;;
29906;SDS011;16776;50.958;10.994;2023-03-11T00:05:10;1.38;;;1.20;;
29906;SDS011;16776;50.958;10.994;2023-03-11T00:07:39;1.35;;;1.25;;
29906;SDS011;16776;50.958;10.994;2023-03-11T00:10:07;1.05;;;0.98;;
29906;SDS011;16776;50.958;10.994;2023-03-11T00:12:38;1.50;;;1.10;;
29906;SDS011;16776;50.958;10.994;2023-03-11T00:15:07;0.90;;;0.90;;
29906;SDS011;16776;50.958;10.994;2023-03-11T00:17:34;2.10;;;1.40;;
29906;SDS011;16776;50.958;10.994;2023-03-11T00:20:04;1.55;;;1.15;;
29906;SDS011;16776;50.958;10.994;2023-03-11T00:22:31;0.80;;;0.80;;
29906;SDS011;16776;50.958;10.994;2023-03-11T00:24:58;1.25;;;1.15;;
29906;SDS011;16776;50.958;10.994;2023-03-11T00:27:25;1.63;;;1.15;;
29906;SDS011;16776;50.958;10.994;2023-03-11T00:29:51;1.27;;;1.17;;
29906;SDS011;16776;50.958;10.994;2023-03-11T00:32:19;1.23;;;0.90;;
29906;SDS011;16776;50.958;10.994;2023-03-11T00:34:46;1.30;;;1.20;;
29906;SDS011;16776;50.958;10.994;2023-03-11T00:37:15;1.15;;;1.05;;
29906;SDS011;16776;50.958;10.994;2023-03-11T00:39:41;0.73;;;0.73;;
29906;SDS011;16776;50.958;10.994;2023-03-11T00:42:08;0.68;;;0.68;;
29906;SDS011;16776;50.958;10.994;2023-03-11T00:44:34;0.98;;;0.70;;
29906;SDS011;16776;50.958;10.994;2023-03-11T00:47:01;1.25;;;0.93;;
29906;SDS011;16776;50.958;10.994;2023-03-11T00:49:29;0.75;;;0.75;;
29906;SDS011;16776;50.958;10.994;2023-03-11T00:51:55;2.20;;;0.90;;
29906;SDS011;16776;50.958;10.994;2023-03-11T00:54:22;2.33;;;1.15;;
29906;SDS011;16776;50.958;10.994;2023-03-11T00:56:48;0.80;;;0.80;;
29906;SDS011;16776;50.958;10.994;2023-03-11T00:59:15;0.90;;;0.80;;
29906;SDS011;16776;50.958;10.994;2023-03-11T01:01:41;1.10;;;1.00;;
29906;SDS011;16776;50.958;10.994;2023-03-11T01:04:08;0.73;;;0.63;;
29906;SDS011;16776;50.958;10.994;2023-03-11T01:06:36;1.15;;;1.05;;
29906;SDS011;16776;50.958;10.994;2023-03-11T01:09:02;0.88;;;0.85;;
29906;SDS011;16776;50.958;10.994;2023-03-11T01:11:30;0.80;;;0.77;;
29906;SDS011;16776;50.958;10.994;2023-03-11T01:13:56;0.65;;;0.65;;
29906;SDS011;16776;50.958;10.994;2023-03-11T01:16:23;1.40;;;0.90;;
29906;SDS011;16776;50.958;10.994;2023-03-11T01:18:50;1.50;;;1.40;;
29906;SDS011;16776;50.958;10.994;2023-03-11T01:21:18;1.00;;;0.90;;
29906;SDS011;16776;50.958;10.994;2023-03-11T01:23:46;2.13;;;0.90;;
29906;SDS011;16776;50.958;10.994;2023-03-11T01:26:13;0.85;;;0.85;;
29906;SDS011;16776;50.958;10.994;2023-03-11T01:28:39;1.15;;;0.88;;
29906;SDS011;16776;50.958;10.994;2023-03-11T01:31:07;1.35;;;1.05;;
29906;SDS011;16776;50.958;10.994;2023-03-11T01:33:34;1.58;;;1.10;;
29906;SDS011;16776;50.958;10.994;2023-03-11T01:36:00;0.93;;;0.93;;
29906;SDS011;16776;50.958;10.994;2023-03-11T01:38:27;1.55;;;0.95;;
29906;SDS011;16776;50.958;10.994;2023-03-11T01:40:55;3.13;;;0.90;;
29906;SDS011;16776;50.958;10.994;2023-03-11T01:43:36;0.90;;;0.90;;
29906;SDS011;16776;50.958;10.994;2023-03-11T01:46:17;1.10;;;0.90;;
29906;SDS011;16776;50.958;10.994;2023-03-11T01:48:46;1.95;;;1.35;;
29906;SDS011;16776;50.958;10.994;2023-03-11T01:51:14;1.40;;;0.95;;
29906;SDS011;16776;50.958;10.994;2023-03-11T01:53:42;1.13;;;1.02;;
29906;SDS011;16776;50.958;10.994;2023-03-11T01:56:10;1.30;;;1.20;;
29906;SDS011;16776;50.958;10.994;2023-03-11T01:58:39;1.38;;;0.85;;
29906;SDS011;16776;50.958;10.994;2023-03-11T02:01:09;1.40;;;0.98;;
29906;SDS011;16776;50.958;10.994;2023-03-11T02:03:38;1.05;;;0.73;;
29906;SDS011;16776;50.958;10.994;2023-03-11T02:06:07;0.90;;;0.80;;
29906;SDS011;16776;50.958;10.994;2023-03-11T02:08:36;0.93;;;0.80;;
29906;SDS011;16776;50.958;10.994;2023-03-11T02:11:04;0.70;;;0.70;;
29906;SDS011;16776;50.958;10.994;2023-03-11T02:13:35;1.00;;;0.90;;
29906;SDS011;16776;50.958;10.994;2023-03-11T02:16:02;0.68;;;0.68;;
29906;SDS011;16776;50.958;10.994;2023-03-11T02:18:29;0.85;;;0.82;;
29906;SDS011;16776;50.958;10.994;2023-03-11T02:20:59;1.48;;;0.80;;
29906;SDS011;16776;50.958;10.994;2023-03-11T02:23:38;0.77;;;0.70;;
29906;SDS011;16776;50.958;10.994;2023-03-11T02:26:12;0.73;;;0.68;;
29906;SDS011;16776;50.958;10.994;2023-03-11T02:28:43;1.23;;;0.82;;
29906;SDS011;16776;50.958;10.994;2023-03-11T02:31:11;1.05;;;0.75;;
29906;SDS011;16776;50.958;10.994;2023-03-11T02:33:38;0.50;;;0.50;;
29906;SDS011;16776;50.958;10.994;2023-03-11T02:38:56;0.45;;;0.40;;
29906;SDS011;16776;50.958;10.994;2023-03-11T02:41:23;0.63;;;0.60;;
29906;SDS011;16776;50.958;10.994;2023-03-11T02:43:51;0.40;;;0.40;;
29906;SDS011;16776;50.958;10.994;2023-03-11T02:46:18;0.60;;;0.52;;
29906;SDS011;16776;50.958;10.994;2023-03-11T02:48:45;0.50;;;0.50;;
29906;SDS011;16776;50.958;10.994;2023-03-11T02:51:12;0.65;;;0.40;;
29906;SDS011;16776;50.958;10.994;2023-03-11T02:53:40;0.40;;;0.40;;
29906;SDS011;16776;50.958;10.994;2023-03-11T02:56:11;0.50;;;0.50;;
29906;SDS011;16776;50.958;10.994;2023-03-11T02:58:37;0.65;;;0.60;;
29906;SDS011;16776;50.958;10.994;2023-03-11T03:01:05;0.90;;;0.68;;
29906;SDS011;16776;50.958;10.994;2023-03-11T03:03:32;0.70;;;0.40;;
29906;SDS011;16776;50.958;10.994;2023-03-11T03:05:58;0.63;;;0.60;;
29906;SDS011;16776;50.958;10.994;2023-03-11T03:08:25;0.60;;;0.60;;
29906;SDS011;16776;50.958;10.994;2023-03-11T03:10:52;0.98;;;0.88;;
29906;SDS011;16776;50.958;10.994;2023-03-11T03:13:18;0.60;;;0.60;;
29906;SDS011;16776;50.958;10.994;2023-03-11T03:15:45;0.95;;;0.82;;
29906;SDS011;16776;50.958;10.994;2023-03-11T03:18:13;0.60;;;0.60;;
29906;SDS011;16776;50.958;10.994;2023-03-11T03:20:41;1.38;;;1.27;;
29906;SDS011;16776;50.958;10.994;2023-03-11T03:23:08;0.60;;;0.60;;
29906;SDS011;16776;50.958;10.994;2023-03-11T03:25:34;0.60;;;0.60;;
29906;SDS011;16776;50.958;10.994;2023-03-11T03:28:01;0.75;;;0.60;;
29906;SDS011;16776;50.958;10.994;2023-03-11T03:30:28;0.80;;;0.80;;
29906;SDS011;16776;50.958;10.994;2023-03-11T03:32:54;1.20;;;0.57;;
29906;SDS011;16776;50.958;10.994;2023-03-11T03:35:22;1.13;;;0.70;;
29906;SDS011;16776;50.958;10.994;2023-03-11T03:37:49;0.95;;;0.60;;
29906;SDS011;16776;50.958;10.994;2023-03-11T03:40:15;0.82;;;0.73;;
29906;SDS011;16776;50.958;10.994;2023-03-11T03:42:42;0.68;;;0.68;;
29906;SDS011;16776;50.958;10.994;2023-03-11T03:45:09;0.68;;;0.57;;
29906;SDS011;16776;50.958;10.994;2023-03-11T03:47:36;1.38;;;0.40;;
29906;SDS011;16776;50.958;10.994;2023-03-11T03:50:03;0.43;;;0.43;;
29906;SDS011;16776;50.958;10.994;2023-03-11T03:52:32;0.60;;;0.60;;
29906;SDS011;16776;50.958;10.994;2023-03-11T03:55:00;0.50;;;0.43;;
29906;SDS011;16776;50.958;10.994;2023-03-11T03:57:27;0.50;;;0.50;;
29906;SDS011;16776;50.958;10.994;2023-03-11T03:59:53;0.50;;;0.50;;
29906;SDS011;16776;50.958;10.994;2023-03-11T04:02:20;0.30;;;0.30;;
29906;SDS011;16776;50.958;10.994;2023-03-11T04:04:47;0.50;;;0.50;;
29906;SDS011;16776;50.958;10.994;2023-03-11T04:07:13;0.40;;;0.40;;
29906;SDS011;16776;50.958;10.994;2023-03-11T04:09:41;1.45;;;0.40;;
29906;SDS011;16776;50.958;10.994;2023-03-11T04:12:10;0.80;;;0.55;;
29906;SDS011;16776;50.958;10.994;2023-03-11T04:14:39;0.50;;;0.50;;
29906;SDS011;16776;50.958;10.994;2023-03-11T04:17:06;0.50;;;0.50;;
29906;SDS011;16776;50.958;10.994;2023-03-11T04:19:32;0.20;;;0.20;;
29906;SDS011;16776;50.958;10.994;2023-03-11T04:21:59;0.32;;;0.32;;
29906;SDS011;16776;50.958;10.994;2023-03-11T04:24:25;0.40;;;0.40;;
29906;SDS011;16776;50.958;10.994;2023-03-11T04:26:53;0.50;;;0.50;;
29906;SDS011;16776;50.958;10.994;2023-03-11T04:29:20;0.40;;;0.40;;
29906;SDS011;16776;50.958;10.994;2023-03-11T04:31:46;0.40;;;0.32;;
29906;SDS011;16776;50.958;10.994;2023-03-11T04:34:13;0.50;;;0.50;;
29906;SDS011;16776;50.958;10.994;2023-03-11T04:36:39;0.40;;;0.40;;
29906;SDS011;16776;50.958;10.994;2023-03-11T04:39:06;0.40;;;0.40;;
29906;SDS011;16776;50.958;10.994;2023-03-11T04:41:33;0.35;;;0.35;;
29906;SDS011;16776;50.958;10.994;2023-03-11T04:44:01;0.68;;;0.68;;
29906;SDS011;16776;50.958;10.994;2023-03-11T04:46:27;0.32;;;0.20;;
29906;SDS011;16776;50.958;10.994;2023-03-11T04:48:54;0.38;;;0.38;;
29906;SDS011;16776;50.958;10.994;2023-03-11T04:51:20;0.68;;;0.50;;
29906;SDS011;16776;50.958;10.994;2023-03-11T04:53:47;0.43;;;0.43;;
29906;SDS011;16776;50.958;10.994;2023-03-11T04:56:13;1.17;;;0.47;;
29906;SDS011;16776;50.958;10.994;2023-03-11T04:58:40;1.00;;;0.28;;
29906;SDS011;16776;50.958;10.994;2023-03-11T05:01:08;0.32;;;0.32;;
29906;SDS011;16776;50.958;10.994;2023-03-11T05:03:41;0.32;;;0.32;;
29906;SDS011;16776;50.958;10.994;2023-03-11T05:06:07;0.40;;;0.40;;
29906;SDS011;16776;50.958;10.994;2023-03-11T05:08:34;0.90;;;0.30;;
29906;SDS011;16776;50.958;10.994;2023-03-11T05:11:00;1.23;;;0.70;;
29906;SDS011;16776;50.958;10.994;2023-03-11T05:13:27;0.63;;;0.40;;
29906;SDS011;16776;50.958;10.994;2023-03-11T05:15:54;1.80;;;0.50;;
29906;SDS011;16776;50.958;10.994;2023-03-11T05:18:22;0.35;;;0.35;;
29906;SDS011;16776;50.958;10.994;2023-03-11T05:20:48;0.35;;;0.30;;
29906;SDS011;16776;50.958;10.994;2023-03-11T05:23:15;0.30;;;0.30;;
29906;SDS011;16776;50.958;10.994;2023-03-11T05:25:42;0.80;;;0.22;;
29906;SDS011;16776;50.958;10.994;2023-03-11T05:28:08;0.30;;;0.25;;
29906;SDS011;16776;50.958;10.994;2023-03-11T05:30:35;0.40;;;0.40;;
29906;SDS011;16776;50.958;10.994;2023-03-11T05:33:02;0.38;;;0.30;;
29906;SDS011;16776;50.958;10.994;2023-03-11T05:35:30;1.23;;;0.30;;
29906;SDS011;16776;50.958;10.994;2023-03-11T05:37:57;0.50;;;0.35;;
29906;SDS011;16776;50.958;10.994;2023-03-11T05:40:23;0.30;;;0.30;;
29906;SDS011;16776;50.958;10.994;2023-03-11T05:42:50;0.60;;;0.30;;
29906;SDS011;16776;50.958;10.994;2023-03-11T05:45:17;0.22;;;0.22;;
29906;SDS011;16776;50.958;10.994;2023-03-11T05:47:43;0.25;;;0.25;;
29906;SDS011;16776;50.958;10.994;2023-03-11T05:50:10;0.38;;;0.35;;
29906;SDS011;16776;50.958;10.994;2023-03-11T05:52:38;0.55;;;0.30;;
29906;SDS011;16776;50.958;10.994;2023-03-11T05:55:05;0.68;;;0.20;;
29906;SDS011;16776;50.958;10.994;2023-03-11T05:57:34;1.83;;;0.47;;
29906;SDS011;16776;50.958;10.994;2023-03-11T06:00:00;0.38;;;0.30;;
29906;SDS011;16776;50.958;10.994;2023-03-11T06:02:28;0.20;;;0.20;;
29906;SDS011;16776;50.958;10.994;2023-03-11T06:04:54;0.63;;;0.25;;
29906;SDS011;16776;50.958;10.994;2023-03-11T06:07:21;0.20;;;0.20;;
29906;SDS011;16776;50.958;10.994;2023-03-11T06:09:49;2.17;;;0.45;;
29906;SDS011;16776;50.958;10.994;2023-03-11T06:12:18;0.38;;;0.30;;
29906;SDS011;16776;50.958;10.994;2023-03-11T06:14:45;0.22;;;0.20;;
29906;SDS011;16776;50.958;10.994;2023-03-11T06:17:12;2.92;;;0.65;;
29906;SDS011;16776;50.958;10.994;2023-03-11T06:19:38;0.65;;;0.30;;
29906;SDS011;16776;50.958;10.994;2023-03-11T06:22:05;0.30;;;0.30;;
29906;SDS011;16776;50.958;10.994;2023-03-11T06:24:32;0.40;;;0.30;;
29906;SDS011;16776;50.958;10.994;2023-03-11T06:26:59;0.38;;;0.35;;
29906;SDS011;16776;50.958;10.994;2023-03-11T06:29:27;0.47;;;0.40;;
29906;SDS011;16776;50.958;10.994;2023-03-11T06:31:54;0.40;;;0.30;;
29906;SDS011;16776;50.958;10.994;2023-03-11T06:34:20;0.77;;;0.30;;
29906;SDS011;16776;50.958;10.994;2023-03-11T06:36:47;0.50;;;0.50;;
29906;SDS011;16776;50.958;10.994;2023-03-11T06:39:14;0.40;;;0.30;;
29906;SDS011;16776;50.958;10.994;2023-03-11T06:41:41;3.15;;;0.40;;
29906;SDS011;16776;50.958;10.994;2023-03-11T06:44:09;0.30;;;0.30;;
29906;SDS011;16776;50.958;10.994;2023-03-11T06:46:38;0.85;;;0.40;;
29906;SDS011;16776;50.958;10.994;2023-03-11T06:49:05;1.00;;;0.30;;
29906;SDS011;16776;50.958;10.994;2023-03-11T06:51:32;1.48;;;0.50;;
29906;SDS011;16776;50.958;10.994;2023-03-11T06:54:01;0.55;;;0.38;;
29906;SDS011;16776;50.958;10.994;2023-03-11T06:56:27;1.48;;;0.50;;
29906;SDS011;16776;50.958;10.994;2023-03-11T06:58:54;0.40;;;0.40;;
29906;SDS011;16776;50.958;10.994;2023-03-11T07:01:22;0.60;;;0.50;;
29906;SDS011;16776;50.958;10.994;2023-03-11T07:03:51;0.60;;;0.45;;
29906;SDS011;16776;50.958;10.994;2023-03-11T07:06:18;1.13;;;0.50;;
29906;SDS011;16776;50.958;10.994;2023-03-11T07:08:47;0.95;;;0.40;;
29906;SDS011;16776;50.958;10.994;2023-03-11T07:11:15;0.52;;;0.30;;
29906;SDS011;16776;50.958;10.994;2023-03-11T07:13:43;0.40;;;0.40;;
29906;SDS011;16776;50.958;10.994;2023-03-11T07:16:11;0.88;;;0.50;;
29906;SDS011;16776;50.958;10.994;2023-03-11T07:18:41;0.30;;;0.30;;
29906;SDS011;16776;50.958;10.994;2023-03-11T07:21:10;0.95;;;0.50;;
29906;SDS011;16776;50.958;10.994;2023-03-11T07:23:38;0.43;;;0.30;;
29906;SDS011;16776;50.958;10.994;2023-03-11T07:26:06;0.63;;;0.40;;
29906;SDS011;16776;50.958;10.994;2023-03-11T07:28:34;0.55;;;0.52;;
29906;SDS011;16776;50.958;10.994;2023-03-11T07:31:05;1.58;;;0.55;;
29906;SDS011;16776;50.958;10.994;2023-03-11T07:33:35;1.48;;;0.55;;
29906;SDS011;16776;50.958;10.994;2023-03-11T07:36:07;0.55;;;0.45;;
29906;SDS011;16776;50.958;10.994;2023-03-11T07:38:35;0.57;;;0.45;;
29906;SDS011;16776;50.958;10.994;2023-03-11T07:41:02;0.70;;;0.40;;
29906;SDS011;16776;50.958;10.994;2023-03-11T07:43:28;0.52;;;0.40;;
29906;SDS011;16776;50.958;10.994;2023-03-11T07:46:02;0.60;;;0.40;;
29906;SDS011;16776;50.958;10.994;2023-03-11T07:48:29;0.90;;;0.40;;
29906;SDS011;16776;50.958;10.994;2023-03-11T07:51:02;0.55;;;0.55;;
29906;SDS011;16776;50.958;10.994;2023-03-11T07:53:32;1.40;;;0.85;;
29906;SDS011;16776;50.958;10.994;2023-03-11T07:55:59;0.30;;;0.28;;
29906;SDS011;16776;50.958;10.994;2023-03-11T07:58:30;0.55;;;0.50;;
29906;SDS011;16776;50.958;10.994;2023-03-11T08:01:01;0.55;;;0.55;;
29906;SDS011;16776;50.958;10.994;2023-03-11T08:03:28;0.73;;;0.40;;
29906;SDS011;16776;50.958;10.994;2023-03-11T08:05:55;0.90;;;0.43;;
29906;SDS011;16776;50.958;10.994;2023-03-11T08:08:21;1.85;;;0.65;;
29906;SDS011;16776;50.958;10.994;2023-03-11T08:10:49;1.92;;;0.70;;
29906;SDS011;16776;50.958;10.994;2023-03-11T08:13:16;0.65;;;0.60;;
29906;SDS011;16776;50.958;10.994;2023-03-11T08:15:43;0.50;;;0.50;;
29906;SDS011;16776;50.958;10.994;2023-03-11T08:18:12;1.65;;;0.38;;
29906;SDS011;16776;50.958;10.994;2023-03-11T08:20:39;0.40;;;0.40;;
29906;SDS011;16776;50.958;10.994;2023-03-11T08:23:08;0.57;;;0.40;;
29906;SDS011;16776;50.958;10.994;2023-03-11T08:25:37;0.30;;;0.30;;
29906;SDS011;16776;50.958;10.994;2023-03-11T08:28:05;0.20;;;0.20;;
29906;SDS011;16776;50.958;10.994;2023-03-11T08:30:33;0.95;;;0.43;;
29906;SDS011;16776;50.958;10.994;2023-03-11T08:33:02;0.65;;;0.40;;
29906;SDS011;16776;50.958;10.994;2023-03-11T08:35:29;0.50;;;0.30;;
29906;SDS011;16776;50.958;10.994;2023-03-11T08:37:55;1.65;;;0.50;;
29906;SDS011;16776;50.958;10.994;2023-03-11T08:40:22;0.50;;;0.40;;
29906;SDS011;16776;50.958;10.994;2023-03-11T08:42:49;1.08;;;0.35;;
29906;SDS011;16776;50.958;10.994;2023-03-11T08:45:17;1.30;;;0.50;;
29906;SDS011;16776;50.958;10.994;2023-03-11T08:47:43;1.02;;;0.50;;
29906;SDS011;16776;50.958;10.994;2023-03-11T08:50:11;0.30;;;0.30;;
29906;SDS011;16776;50.958;10.994;2023-03-11T08:52:41;0.50;;;0.30;;
29906;SDS011;16776;50.958;10.994;2023-03-11T08:55:09;2.67;;;0.70;;
29906;SDS011;16776;50.958;10.994;2023-03-11T08:57:38;0.47;;;0.30;;
29906;SDS011;16776;50.958;10.994;2023-03-11T09:00:07;0.40;;;0.40;;
29906;SDS011;16776;50.958;10.994;2023-03-11T09:02:36;1.10;;;0.50;;
29906;SDS011;16776;50.958;10.994;2023-03-11T09:05:03;0.93;;;0.25;;
29906;SDS011;16776;50.958;10.994;2023-03-11T09:07:30;1.25;;;0.50;;
29906;SDS011;16776;50.958;10.994;2023-03-11T09:09:57;1.40;;;0.40;;
29906;SDS011;16776;50.958;10.994;2023-03-11T09:12:23;0.93;;;0.43;;
29906;SDS011;16776;50.958;10.994;2023-03-11T09:14:50;0.50;;;0.40;;
29906;SDS011;16776;50.958;10.994;2023-03-11T09:17:18;0.30;;;0.30;;
29906;SDS011;16776;50.958;10.994;2023-03-11T09:19:46;0.85;;;0.28;;
29906;SDS011;16776;50.958;10.994;2023-03-11T09:22:13;1.05;;;0.30;;
29906;SDS011;16776;50.958;10.994;2023-03-11T09:24:40;0.85;;;0.40;;
29906;SDS011;16776;50.958;10.994;2023-03-11T09:27:07;0.93;;;0.30;;
29906;SDS011;16776;50.958;10.994;2023-03-11T09:29:33;1.08;;;0.47;;
29906;SDS011;16776;50.958;10.994;2023-03-11T09:32:00;0.88;;;0.30;;
29906;SDS011;16776;50.958;10.994;2023-03-11T09:34:26;1.70;;;0.57;;
29906;SDS011;16776;50.958;10.994;2023-03-11T09:36:54;0.50;;;0.50;;
29906;SDS011;16776;50.958;10.994;2023-03-11T09:39:22;0.52;;;0.45;;
29906;SDS011;16776;50.958;10.994;2023-03-11T09:41:51;0.82;;;0.45;;
29906;SDS011;16776;50.958;10.994;2023-03-11T09:44:20;0.73;;;0.30;;
29906;SDS011;16776;50.958;10.994;2023-03-11T09:46:56;0.20;;;0.20;;
29906;SDS011;16776;50.958;10.994;2023-03-11T09:52:43;2.08;;;0.63;;
29906;SDS011;16776;50.958;10.994;2023-03-11T09:55:20;0.68;;;0.40;;
29906;SDS011;16776;50.958;10.994;2023-03-11T09:57:55;1.58;;;0.40;;
29906;SDS011;16776;50.958;10.994;2023-03-11T10:00:25;1.08;;;0.32;;
29906;SDS011;16776;50.958;10.994;2023-03-11T10:02:52;0.45;;;0.38;;
29906;SDS011;16776;50.958;10.994;2023-03-11T10:05:19;0.93;;;0.32;;
29906;SDS011;16776;50.958;10.994;2023-03-11T10:07:52;0.73;;;0.30;;
29906;SDS011;16776;50.958;10.994;2023-03-11T10:10:23;0.70;;;0.28;;
29906;SDS011;16776;50.958;10.994;2023-03-11T10:12:54;0.55;;;0.30;;
29906;SDS011;16776;50.958;10.994;2023-03-11T10:15:30;0.50;;;0.35;;
29906;SDS011;16776;50.958;10.994;2023-03-11T10:18:16;0.65;;;0.22;;
29906;SDS011;16776;50.958;10.994;2023-03-11T10:20:52;0.50;;;0.50;;
29906;SDS011;16776;50.958;10.994;2023-03-11T10:23:28;0.50;;;0.30;;
29906;SDS011;16776;50.958;10.994;2023-03-11T10:26:02;0.47;;;0.35;;
29906;SDS011;16776;50.958;10.994;2023-03-11T10:28:38;1.10;;;0.40;;
29906;SDS011;16776;50.958;10.994;2023-03-11T10:31:12;0.82;;;0.40;;
29906;SDS011;16776;50.958;10.994;2023-03-11T10:33:47;2.60;;;0.52;;
29906;SDS011;16776;50.958;10.994;2023-03-11T10:36:20;0.47;;;0.40;;
29906;SDS011;16776;50.958;10.994;2023-03-11T10:38:52;1.75;;;0.80;;
29906;SDS011;16776;50.958;10.994;2023-03-11T10:41:21;1.35;;;0.40;;
29906;SDS011;16776;50.958;10.994;2023-03-11T10:43:53;0.60;;;0.40;;
29906;SDS011;16776;50.958;10.994;2023-03-11T10:46:25;1.17;;;0.40;;
29906;SDS011;16776;50.958;10.994;2023-03-11T10:48:53;0.30;;;0.30;;
29906;SDS011;16776;50.958;10.994;2023-03-11T10:51:21;2.03;;;0.60;;
29906;SDS011;16776;50.958;10.994;2023-03-11T10:53:50;0.60;;;0.60;;
29906;SDS011;16776;50.958;10.994;2023-03-11T10:56:23;2.03;;;0.65;;
29906;SDS011;16776;50.958;10.994;2023-03-11T10:58:51;1.65;;;1.10;;
29906;SDS011;16776;50.958;10.994;2023-03-11T11:01:18;1.55;;;1.20;;
29906;SDS011;16776;50.958;10.994;2023-03-11T11:03:46;1.13;;;0.95;;
29906;SDS011;16776;50.958;10.994;2023-03-11T11:06:18;1.75;;;0.85;;
29906;SDS011;16776;50.958;10.994;2023-03-11T11:08:49;1.92;;;0.82;;
29906;SDS011;16776;50.958;10.994;2023-03-11T11:11:31;1.60;;;0.90;;
29906;SDS011;16776;50.958;10.994;2023-03-11T11:14:03;1.70;;;0.60;;
29906;SDS011;16776;50.958;10.994;2023-03-11T11:16:31;1.23;;;0.50;;
29906;SDS011;16776;50.958;10.994;2023-03-11T11:19:01;1.20;;;0.60;;
29906;SDS011;16776;50.958;10.994;2023-03-11T11:21:30;1.30;;;0.70;;
29906;SDS011;16776;50.958;10.994;2023-03-11T11:24:02;1.13;;;0.57;;
29906;SDS011;16776;50.958;10.994;2023-03-11T11:26:36;0.82;;;0.50;;
29906;SDS011;16776;50.958;10.994;2023-03-11T11:29:10;1.63;;;0.63;;
29906;SDS011;16776;50.958;10.994;2023-03-11T11:31:40;1.50;;;0.70;;
29906;SDS011;16776;50.958;10.994;2023-03-11T11:34:23;0.65;;;0.60;;
29906;SDS011;16776;50.958;10.994;2023-03-11T11:36:54;2.03;;;1.27;;
29906;SDS011;16776;50.958;10.994;2023-03-11T11:39:25;0.60;;;0.50;;
29906;SDS011;16776;50.958;10.994;2023-03-11T11:41:53;0.40;;;0.40;;
29906;SDS011;16776;50.958;10.994;2023-03-11T11:44:25;1.38;;;0.57;;
29906;SDS011;16776;50.958;10.994;2023-03-11T11:47:00;2.67;;;0.70;;
29906;SDS011;16776;50.958;10.994;2023-03-11T11:49:34;1.77;;;0.70;;
29906;SDS011;16776;50.958;10.994;2023-03-11T11:52:04;2.00;;;0.60;;
29906;SDS011;16776;50.958;10.994;2023-03-11T11:54:37;0.75;;;0.50;;
29906;SDS011;16776;50.958;10.994;2023-03-11T11:57:09;2.03;;;0.55;;
29906;SDS011;16776;50.958;10.994;2023-03-11T11:59:38;1.45;;;0.40;;
29906;SDS011;16776;50.958;10.994;2023-03-11T12:02:18;0.90;;;0.60;;
29906;SDS011;16776;50.958;10.994;2023-03-11T12:04:56;2.13;;;0.70;;
29906;SDS011;16776;50.958;10.994;2023-03-11T12:10:30;0.38;;;0.38;;
29906;SDS011;16776;50.958;10.994;2023-03-11T12:16:12;1.02;;;0.70;;
29906;SDS011;16776;50.958;10.994;2023-03-11T12:18:47;0.65;;;0.40;;
29906;SDS011;16776;50.958;10.994;2023-03-11T12:21:22;1.30;;;0.45;;
29906;SDS011;16776;50.958;10.994;2023-03-11T12:24:04;0.77;;;0.57;;
29906;SDS011;16776;50.958;10.994;2023-03-11T12:26:43;1.42;;;0.55;;
29906;SDS011;16776;50.958;10.994;2023-03-11T12:29:14;1.30;;;0.32;;
29906;SDS011;16776;50.958;10.994;2023-03-11T12:31:50;2.60;;;0.50;;
29906;SDS011;16776;50.958;10.994;2023-03-11T12:34:19;1.60;;;0.30;;
29906;SDS011;16776;50.958;10.994;2023-03-11T12:36:47;0.88;;;0.30;;
29906;SDS011;16776;50.958;10.994;2023-03-11T12:39:21;0.47;;;0.30;;
29906;SDS011;16776;50.958;10.994;2023-03-11T12:44:41;0.43;;;0.20;;
29906;SDS011;16776;50.958;10.994;2023-03-11T12:47:18;0.38;;;0.20;;
29906;SDS011;16776;50.958;10.994;2023-03-11T12:49:51;0.90;;;0.40;;
29906;SDS011;16776;50.958;10.994;2023-03-11T12:58:27;0.47;;;0.47;;
29906;SDS011;16776;50.958;10.994;2023-03-11T13:01:11;0.63;;;0.50;;
29906;SDS011;16776;50.958;10.994;2023-03-11T13:03:58;0.68;;;0.30;;
29906;SDS011;16776;50.958;10.994;2023-03-11T13:09:32;0.40;;;0.40;;
29906;SDS011;16776;50.958;10.994;2023-03-11T13:12:01;1.33;;;0.40;;
29906;SDS011;16776;50.958;10.994;2023-03-11T13:14:31;1.92;;;0.30;;
29906;SDS011;16776;50.958;10.994;2023-03-11T13:19:51;0.80;;;0.32;;
29906;SDS011;16776;50.958;10.994;2023-03-11T13:25:28;0.30;;;0.25;;
29906;SDS011;16776;50.958;10.994;2023-03-11T13:28:01;1.27;;;0.28;;
29906;SDS011;16776;50.958;10.994;2023-03-11T13:30:48;0.30;;;0.30;;
29906;SDS011;16776;50.958;10.994;2023-03-11T13:33:24;0.73;;;0.45;;
29906;SDS011;16776;50.958;10.994;2023-03-11T13:36:09;0.73;;;0.38;;
29906;SDS011;16776;50.958;10.994;2023-03-11T13:38:55;1.13;;;0.30;;
29906;SDS011;16776;50.958;10.994;2023-03-11T13:41:35;0.30;;;0.30;;
29906;SDS011;16776;50.958;10.994;2023-03-11T13:44:12;0.93;;;0.20;;
29906;SDS011;16776;50.958;10.994;2023-03-11T13:46:47;0.80;;;0.40;;
29906;SDS011;16776;50.958;10.994;2023-03-11T13:49:22;0.93;;;0.93;;
29906;SDS011;16776;50.958;10.994;2023-03-11T13:51:54;1.33;;;0.30;;
29906;SDS011;16776;50.958;10.994;2023-03-11T13:54:29;0.85;;;0.25;;
29906;SDS011;16776;50.958;10.994;2023-03-11T13:57:01;0.95;;;0.40;;
29906;SDS011;16776;50.958;10.994;2023-03-11T13:59:31;0.30;;;0.30;;
29906;SDS011;16776;50.958;10.994;2023-03-11T14:02:10;0.47;;;0.35;;
29906;SDS011;16776;50.958;10.994;2023-03-11T14:04:46;0.40;;;0.40;;
29906;SDS011;16776;50.958;10.994;2023-03-11T14:07:18;0.80;;;0.43;;
29906;SDS011;16776;50.958;10.994;2023-03-11T14:09:49;0.82;;;0.55;;
29906;SDS011;16776;50.958;10.994;2023-03-11T14:12:15;2.15;;;0.60;;
29906;SDS011;16776;50.958;10.994;2023-03-11T14:14:43;0.40;;;0.35;;
29906;SDS011;16776;50.958;10.994;2023-03-11T14:17:17;0.52;;;0.50;;
29906;SDS011;16776;50.958;10.994;2023-03-11T14:22:39;0.55;;;0.43;;
29906;SDS011;16776;50.958;10.994;2023-03-11T14:25:09;0.70;;;0.30;;
29906;SDS011;16776;50.958;10.994;2023-03-11T14:27:44;0.70;;;0.70;;
29906;SDS011;16776;50.958;10.994;2023-03-11T14:30:20;1.27;;;0.35;;
29906;SDS011;16776;50.958;10.994;2023-03-11T14:32:57;2.50;;;0.40;;
29906;SDS011;16776;50.958;10.994;2023-03-11T14:35:26;0.65;;;0.40;;
29906;SDS011;16776;50.958;10.994;2023-03-11T14:37:54;1.27;;;0.40;;
29906;SDS011;16776;50.958;10.994;2023-03-11T14:40:22;0.22;;;0.22;;
29906;SDS011;16776;50.958;10.994;2023-03-11T14:42:51;0.20;;;0.20;;
29906;SDS011;16776;50.958;10.994;2023-03-11T14:45:20;0.50;;;0.35;;
29906;SDS011;16776;50.958;10.994;2023-03-11T14:47:50;1.85;;;0.30;;
29906;SDS011;16776;50.958;10.994;2023-03-11T14:50:22;1.17;;;0.40;;
29906;SDS011;16776;50.958;10.994;2023-03-11T14:52:51;0.63;;;0.20;;
29906;SDS011;16776;50.958;10.994;2023-03-11T14:55:22;1.33;;;0.30;;
29906;SDS011;16776;50.958;10.994;2023-03-11T14:57:54;0.47;;;0.40;;
29906;SDS011;16776;50.958;10.994;2023-03-11T15:00:23;2.72;;;0.30;;
29906;SDS011;16776;50.958;10.994;2023-03-11T15:03:01;0.50;;;0.40;;
29906;SDS011;16776;50.958;10.994;2023-03-11T15:05:38;0.70;;;0.47;;
29906;SDS011;16776;50.958;10.994;2023-03-11T15:08:10;0.40;;;0.40;;
29906;SDS011;16776;50.958;10.994;2023-03-11T15:10:37;0.73;;;0.47;;
29906;SDS011;16776;50.958;10.994;2023-03-11T15:13:06;1.63;;;0.30;;
29906;SDS011;16776;50.958;10.994;2023-03-11T15:15:35;0.20;;;0.20;;
29906;SDS011;16776;50.958;10.994;2023-03-11T15:18:02;0.38;;;0.28;;